Time;durP1;ratioP1;P1;durP2;ratioP2;P2;SDS_P1;SDS_P2;PMS_P1;PMS_P2;Temp;Humidity;BMP_temperature;BMP_pressure;BME280_temperature;BME280_humidity;BME280_pressure;Samples;Min_cycle;Max_cycle;Signal;HPM_P1;HPM_P2
2021/10/13 00:00:34;;;;;;;;;;;;;;;;;;2082498;28;43270;-89
2021/10/13 00:01:35;;;;;;;;;;;;;;;;;;2082979;28;44248;-91
2021/10/13 00:02:37;;;;;;;;;;;;;;;;;;2082600;28;43352;-90
2021/10/13 00:03:39;;;;;;;;;;;;;;;;;;2082289;28;44200;-91
2021/10/13 00:04:40;;;;;;;;;;;;;;;;;;2074555;28;43170;-91
2021/10/13 00:05:41;;;;;;;;;;;;;;;;;;2081757;28;42853;-89
2021/10/13 00:06:43;;;;;;;;;;;;;;;;;;2082366;28;41570;-89
2021/10/13 00:07:44;;;;;;;;;;;;;;;;;;2082390;28;44093;-90
2021/10/13 00:08:46;;;;;;;;;;;;;;;;;;2082458;28;42030;-90
2021/10/13 00:09:48;;;;;;;;;;;;;;;;;;2082512;28;43856;-90
2021/10/13 00:10:49;;;;;;;;;;;;;;;;;;2082197;28;43401;-91
2021/10/13 00:11:51;;;;;;;;;;;;;;;;;;2082477;28;45867;-91
2021/10/13 00:12:52;;;;;;;;;;;;;;;;;;2074375;28;45826;-90
2021/10/13 00:13:54;;;;;;;;;;;;;;;;;;2082546;28;43378;-89
2021/10/13 00:14:55;;;;;;;;;;;;;;;;;;2082466;28;41761;-90
2021/10/13 00:15:58;;;;;;;;;;;;;;;;;;2082060;28;44264;-90
2021/10/13 00:17:04;;;;;;;;;;;;;;;;;;2082343;28;42547;-90
2021/10/13 00:18:06;;;;;;;;;;;;;;;;;;2082607;28;42437;-90
2021/10/13 00:19:08;;;;;;;;;;;;;;;;;;2082500;28;42629;-90
2021/10/13 00:20:10;;;;;;;;;;;;;;;;;;2082702;28;42351;-90
2021/10/13 00:21:11;;;;;;;;;;;;;;;;;;2082468;28;42543;-90
2021/10/13 00:22:13;;;;;;;;;;;;;;;;;;2082663;28;44070;-89
2021/10/13 00:23:14;;;;;;;;;;;;;;;;;;2082951;28;46399;-90
2021/10/13 00:24:16;;;;;;;;;;;;;;;;;;2082523;28;47944;-89
2021/10/13 00:25:18;;;;;;;;;;;;;;;;;;2082859;28;48766;-90
2021/10/13 00:26:19;;;;;;;;;;;;;;;;;;2082439;28;46765;-90
2021/10/13 00:27:21;;;;;;;;;;;;;;;;;;2082421;28;45337;-90
2021/10/13 00:28:22;;;;;;;;;;;;;;;;;;2082361;28;45227;-90
2021/10/13 00:29:24;;;;;;;;;;;;;;;;;;2082332;28;44142;-91
2021/10/13 00:30:25;;;;;;;;;;;;;;;;;;2074552;28;44072;-89
2021/10/13 00:31:27;;;;;;;;;;;;;;;;;;2082470;28;44189;-91
2021/10/13 00:32:28;;;;;;;;;;;;;;;;;;2082769;28;43397;-90
2021/10/13 00:33:30;;;;;;;;;;;;;;;;;;2082593;28;45493;-91
2021/10/13 00:34:32;;;;;;;;;;;;;;;;;;2082338;28;45495;-90
2021/10/13 00:35:34;;;;;;;;;;;;;;;;;;2081930;28;46970;-89
2021/10/13 00:36:35;;;;;;;;;;;;;;;;;;2073898;28;44235;-89
2021/10/13 00:37:37;;;;;;;;;;;;;;;;;;2082611;28;44781;-90
2021/10/13 00:38:39;;;;;;;;;;;;;;;;;;2082195;28;46723;-90
2021/10/13 00:39:40;;;;;;;;;;;;;;;;;;2082370;28;43961;-90
2021/10/13 00:40:42;;;;;;;;;;;;;;;;;;2082076;28;41470;-90
2021/10/13 00:41:43;;;;;;;;;;;;;;;;;;2082322;28;45636;-91
2021/10/13 00:42:44;;;;;;;;;;;;;;;;;;2082648;28;43105;-90
2021/10/13 00:43:46;;;;;;;;;;;;;;;;;;2082627;28;42778;-90
2021/10/13 00:44:47;;;;;;;;;;;;;;;;;;2082495;28;46250;-90
2021/10/13 00:45:51;;;;;;;;;;;;;;;;;;2082029;28;44328;-91
2021/10/13 00:46:53;;;;;;;;;;;;;;;;;;2082441;28;43951;-90
2021/10/13 00:47:54;;;;;;;;;;;;;;;;;;2073855;28;44939;-89
2021/10/13 00:48:56;;;;;;;;;;;;;;;;;;2082398;28;45758;-90
2021/10/13 00:49:57;;;;;;;;;;;;;;;;;;2082456;28;43996;-89
2021/10/13 00:50:59;;;;;;;;;;;;;;;;;;2082147;28;45342;-90
2021/10/13 00:52:01;;;;;;;;;;;;;;;;;;2082371;28;43786;-90
2021/10/13 00:53:02;;;;;;;;;;;;;;;;;;2082423;28;48850;-90
2021/10/13 00:54:04;;;;;;;;;;;;;;;;;;2082258;28;47661;-91
2021/10/13 00:55:09;;;;;;;;;;;;;;;;;;2082076;28;46004;-90
2021/10/13 00:56:10;;;;;;;;;;;;;;;;;;2082056;28;43810;-90
2021/10/13 00:57:12;;;;;;;;;;;;;;;;;;2081973;28;47139;-90
2021/10/13 00:58:14;;;;;;;;;;;;;;;;;;2082281;28;44157;-90
2021/10/13 00:59:15;;;;;;;;;;;;;;;;;;2081716;28;45506;-90
2021/10/13 01:00:18;;;;;;;;;;;;;;;;;;2082125;28;47622;-89
2021/10/13 01:01:21;;;;;;;;;;;;;;;;;;2074151;28;48349;-90
2021/10/13 01:02:26;;;;;;;;;;;;;;;;;;2082038;28;44298;-90
2021/10/13 01:03:42;;;;;;;;;;;;;;;;;;2082501;28;45203;-90
2021/10/13 01:05:06;;;;;;;;;;;;;;;;;;2082225;28;45443;-91
2021/10/13 01:06:13;;;;;;;;;;;;;;;;;;2078739;28;44326;-89
2021/10/13 01:07:22;;;;;;;;;;;;;;;;;;2082321;28;45782;-91
2021/10/13 01:08:34;;;;;;;;;;;;;;;;;;2082895;28;43995;-89
2021/10/13 01:09:44;;;;;;;;;;;;;;;;;;2082338;28;44044;-90
2021/10/13 01:10:53;;;;;;;;;;;;;;;;;;2082132;28;43292;-90
2021/10/13 01:12:07;;;;;;;;;;;;;;;;;;2082203;28;42918;-89
2021/10/13 01:13:28;;;;;;;;;;;;;;;;;;2082113;28;43374;-89
2021/10/13 01:14:42;;;;;;;;;;;;;;;;;;2065440;28;41035;-90
2021/10/13 01:15:56;;;;;;;;;;;;;;;;;;2057269;28;45180;-90
2021/10/13 01:17:13;;;;;;;;;;;;;;;;;;2072980;28;43116;-90
2021/10/13 01:18:18;;;;;;;;;;;;;;;;;;2082351;28;44039;-91
2021/10/13 01:19:43;;;;;;;;;;;;;;;;;;2074395;28;45366;-90
2021/10/13 01:21:03;;;;;;;;;;;;;;;;;;2060500;28;42805;-90
2021/10/13 01:22:14;;;;;;;;;;;;;;;;;;2076892;28;42706;-91
2021/10/13 01:23:18;;;;;;;;;;;;;;;;;;2075298;28;43115;-90
2021/10/13 01:24:19;;;;;;;;;;;;;;;;;;2082286;28;42754;-90
2021/10/13 01:25:32;;;;;;;;;;;;;;;;;;2082370;28;45455;-89
2021/10/13 01:26:40;;;;;;;;;;;;;;;;;;2081865;28;46866;-90
2021/10/13 01:27:42;;;;;;;;;;;;;;;;;;2082190;28;42763;-91
2021/10/13 01:28:44;;;;;;;;;;;;;;;;;;2074033;28;44018;-90
2021/10/13 01:29:47;;;;;;;;;;;;;;;;;;2082302;28;43580;-90
2021/10/13 01:30:58;;;;;;;;;;;;;;;;;;2082389;28;44108;-90
2021/10/13 01:32:06;;;;;;;;;;;;;;;;;;2075263;28;43093;-90
2021/10/13 01:33:11;;;;;;;;;;;;;;;;;;2082467;28;45678;-90
2021/10/13 01:34:12;;;;;;;;;;;;;;;;;;2082128;28;47087;-90
2021/10/13 01:35:17;;;;;;;;;;;;;;;;;;2074270;28;43044;-91
2021/10/13 01:36:22;;;;;;;;;;;;;;;;;;2081602;28;44032;-89
2021/10/13 01:37:43;;;;;;;;;;;;;;;;;;2081869;28;47282;-90
2021/10/13 01:38:47;;;;;;;;;;;;;;;;;;2082322;28;44971;-91
2021/10/13 01:39:53;;;;;;;;;;;;;;;;;;2082163;28;44250;-90
2021/10/13 01:40:56;;;;;;;;;;;;;;;;;;2082011;28;46594;-89
2021/10/13 01:41:59;;;;;;;;;;;;;;;;;;2082316;28;43147;-91
2021/10/13 01:43:03;;;;;;;;;;;;;;;;;;2082334;28;44504;-90
2021/10/13 01:44:08;;;;;;;;;;;;;;;;;;2081823;28;46050;-89
2021/10/13 01:45:10;;;;;;;;;;;;;;;;;;2082197;28;43366;-91
2021/10/13 01:46:12;;;;;;;;;;;;;;;;;;2082181;28;46645;-91
2021/10/13 01:47:15;;;;;;;;;;;;;;;;;;2081681;28;46759;-90
2021/10/13 01:48:17;;;;;;;;;;;;;;;;;;2081872;28;45260;-89
2021/10/13 01:49:20;;;;;;;;;;;;;;;;;;2082029;28;42988;-91
2021/10/13 01:50:23;;;;;;;;;;;;;;;;;;2082045;28;44146;-90
2021/10/13 01:51:25;;;;;;;;;;;;;;;;;;2081675;28;44615;-90
2021/10/13 01:52:27;;;;;;;;;;;;;;;;;;2081934;28;45321;-91
2021/10/13 01:53:30;;;;;;;;;;;;;;;;;;2082066;28;44458;-91
2021/10/13 01:54:35;;;;;;;;;;;;;;;;;;2082105;28;45571;-90
2021/10/13 01:55:37;;;;;;;;;;;;;;;;;;2082059;28;44121;-90
2021/10/13 01:56:40;;;;;;;;;;;;;;;;;;2081501;28;46106;-89
2021/10/13 01:57:44;;;;;;;;;;;;;;;;;;2082487;28;47350;-87
2021/10/13 01:58:46;;;;;;;;;;;;;;;;;;2082070;28;47247;-88
2021/10/13 01:59:50;;;;;;;;;;;;;;;;;;2074339;28;43263;-85
2021/10/13 02:00:52;;;;;;;;;;;;;;;;;;2082217;28;43167;-91
2021/10/13 02:01:54;;;;;;;;;;;;;;;;;;2082168;28;44482;-90
2021/10/13 02:02:56;;;;;;;;;;;;;;;;;;2081958;28;45993;-91
2021/10/13 02:04:00;;;;;;;;;;;;;;;;;;2082146;28;44505;-91
2021/10/13 02:05:17;;;;;;;;;;;;;;;;;;2081513;28;46437;-91
2021/10/13 02:06:20;;;;;;;;;;;;;;;;;;2081028;28;43156;-90
2021/10/13 02:07:23;;;;;;;;;;;;;;;;;;2081627;28;44049;-90
2021/10/13 02:08:25;;;;;;;;;;;;;;;;;;2074275;28;43179;-90
2021/10/13 02:09:28;;;;;;;;;;;;;;;;;;2073967;28;44832;-89
2021/10/13 02:10:30;;;;;;;;;;;;;;;;;;2081907;28;45594;-90
2021/10/13 02:11:32;;;;;;;;;;;;;;;;;;2082356;28;44604;-90
2021/10/13 02:12:36;;;;;;;;;;;;;;;;;;2075155;28;45000;-90
2021/10/13 02:13:37;;;;;;;;;;;;;;;;;;2075386;28;45162;-90
2021/10/13 02:14:40;;;;;;;;;;;;;;;;;;2083570;28;43235;-91
2021/10/13 02:15:42;;;;;;;;;;;;;;;;;;2075376;28;42818;-89
2021/10/13 02:16:46;;;;;;;;;;;;;;;;;;2075758;28;46782;-90
2021/10/13 02:17:51;;;;;;;;;;;;;;;;;;2083610;28;42889;-93
2021/10/13 02:18:54;;;;;;;;;;;;;;;;;;2076436;28;44846;-91
2021/10/13 02:19:56;;;;;;;;;;;;;;;;;;2077510;28;44081;-91
2021/10/13 02:21:00;;;;;;;;;;;;;;;;;;2083224;28;44688;-92
2021/10/13 02:22:03;;;;;;;;;;;;;;;;;;2075770;28;44473;-91
2021/10/13 02:23:05;;;;;;;;;;;;;;;;;;2075615;28;42342;-91
2021/10/13 02:24:07;;;;;;;;;;;;;;;;;;2083747;28;45067;-92
2021/10/13 02:25:09;;;;;;;;;;;;;;;;;;2075433;28;42769;-92
2021/10/13 02:26:15;;;;;;;;;;;;;;;;;;2075733;28;44267;-92
2021/10/13 02:27:21;;;;;;;;;;;;;;;;;;2076369;28;44858;-92
2021/10/13 02:28:30;;;;;;;;;;;;;;;;;;2081631;28;43090;-88
2021/10/13 02:29:32;;;;;;;;;;;;;;;;;;2091871;28;43798;-87
2021/10/13 02:30:33;;;;;;;;;;;;;;;;;;2083714;28;44076;-88
2021/10/13 02:31:35;;;;;;;;;;;;;;;;;;2083657;28;44428;-90
2021/10/13 02:32:36;;;;;;;;;;;;;;;;;;2091712;28;41632;-90
2021/10/13 02:33:38;;;;;;;;;;;;;;;;;;2083801;28;44627;-89
2021/10/13 02:34:40;;;;;;;;;;;;;;;;;;2083837;28;42710;-91
2021/10/13 02:35:42;;;;;;;;;;;;;;;;;;2091068;28;43029;-91
2021/10/13 02:36:43;;;;;;;;;;;;;;;;;;2083775;28;43890;-88
2021/10/13 02:37:45;;;;;;;;;;;;;;;;;;2083108;28;41912;-87
2021/10/13 02:38:46;;;;;;;;;;;;;;;;;;2091799;28;41589;-88
2021/10/13 02:39:48;;;;;;;;;;;;;;;;;;2084063;28;43937;-91
2021/10/13 02:40:49;;;;;;;;;;;;;;;;;;2090960;28;41583;-90
2021/10/13 02:41:51;;;;;;;;;;;;;;;;;;2090574;28;45079;-89
2021/10/13 02:42:52;;;;;;;;;;;;;;;;;;2083413;28;43924;-90
2021/10/13 02:43:54;;;;;;;;;;;;;;;;;;2091653;28;44247;-88
2021/10/13 02:44:55;;;;;;;;;;;;;;;;;;2083410;28;43995;-90
2021/10/13 02:46:06;;;;;;;;;;;;;;;;;;2082846;28;45658;-89
2021/10/13 02:47:13;;;;;;;;;;;;;;;;;;2090448;28;43502;-89
2021/10/13 02:48:19;;;;;;;;;;;;;;;;;;2083873;28;45736;-90
2021/10/13 02:49:39;;;;;;;;;;;;;;;;;;2083660;28;45271;-90
2021/10/13 02:50:49;;;;;;;;;;;;;;;;;;2085342;28;46587;-90
2021/10/13 02:51:50;;;;;;;;;;;;;;;;;;2083420;28;42935;-88
2021/10/13 02:52:57;;;;;;;;;;;;;;;;;;2080619;28;44768;-88
2021/10/13 02:54:03;;;;;;;;;;;;;;;;;;2082858;28;42652;-91
2021/10/13 02:55:33;;;;;;;;;;;;;;;;;;2080574;28;44208;-91
2021/10/13 02:56:38;;;;;;;;;;;;;;;;;;2071551;28;45680;-91
2021/10/13 02:57:43;;;;;;;;;;;;;;;;;;2085284;28;45568;-91
2021/10/13 02:58:52;;;;;;;;;;;;;;;;;;2085257;28;45084;-92
2021/10/13 02:59:54;;;;;;;;;;;;;;;;;;2084509;28;45700;-91
2021/10/13 03:00:58;;;;;;;;;;;;;;;;;;2076517;28;41883;-91
2021/10/13 03:02:02;;;;;;;;;;;;;;;;;;2084114;28;46429;-91
2021/10/13 03:03:08;;;;;;;;;;;;;;;;;;2076146;28;43542;-91
2021/10/13 03:04:17;;;;;;;;;;;;;;;;;;2075994;28;46065;-90
2021/10/13 03:05:22;;;;;;;;;;;;;;;;;;2082846;28;46034;-91
2021/10/13 03:06:27;;;;;;;;;;;;;;;;;;2074409;28;44741;-91
2021/10/13 03:07:34;;;;;;;;;;;;;;;;;;2083102;28;44128;-90
2021/10/13 03:08:37;;;;;;;;;;;;;;;;;;2083774;28;47585;-90
2021/10/13 03:09:42;;;;;;;;;;;;;;;;;;2083340;28;45544;-90
2021/10/13 03:10:46;;;;;;;;;;;;;;;;;;2075857;28;47099;-90
2021/10/13 03:11:50;;;;;;;;;;;;;;;;;;2083004;28;45499;-90
2021/10/13 03:12:53;;;;;;;;;;;;;;;;;;2083158;28;46156;-90
2021/10/13 03:13:57;;;;;;;;;;;;;;;;;;2082979;28;45816;-90
2021/10/13 03:14:59;;;;;;;;;;;;;;;;;;2082895;28;47596;-90
2021/10/13 03:16:01;;;;;;;;;;;;;;;;;;2082627;28;44680;-90
2021/10/13 03:17:03;;;;;;;;;;;;;;;;;;2082730;28;45588;-89
2021/10/13 03:18:05;;;;;;;;;;;;;;;;;;2083160;28;47613;-89
2021/10/13 03:19:07;;;;;;;;;;;;;;;;;;2083040;28;45310;-90
2021/10/13 03:20:11;;;;;;;;;;;;;;;;;;2083140;28;44933;-90
2021/10/13 03:21:13;;;;;;;;;;;;;;;;;;2082825;28;44024;-91
2021/10/13 03:22:16;;;;;;;;;;;;;;;;;;2082683;28;45107;-89
2021/10/13 03:23:19;;;;;;;;;;;;;;;;;;2074991;28;44859;-90
2021/10/13 03:24:21;;;;;;;;;;;;;;;;;;2082875;28;45088;-90
2021/10/13 03:25:26;;;;;;;;;;;;;;;;;;2083071;28;44069;-91
2021/10/13 03:26:28;;;;;;;;;;;;;;;;;;2082851;28;44786;-90
2021/10/13 03:27:30;;;;;;;;;;;;;;;;;;2082696;28;48322;-90
2021/10/13 03:28:32;;;;;;;;;;;;;;;;;;2082942;28;41290;-90
2021/10/13 03:29:38;;;;;;;;;;;;;;;;;;2082886;28;44923;-91
2021/10/13 03:30:41;;;;;;;;;;;;;;;;;;2082756;28;45080;-90
2021/10/13 03:31:42;;;;;;;;;;;;;;;;;;2082878;28;41193;-90
2021/10/13 03:32:44;;;;;;;;;;;;;;;;;;2083050;28;42664;-90
2021/10/13 03:33:47;;;;;;;;;;;;;;;;;;2082872;28;44143;-90
2021/10/13 03:34:48;;;;;;;;;;;;;;;;;;2082775;28;45614;-90
2021/10/13 03:35:50;;;;;;;;;;;;;;;;;;2082548;28;42830;-90
2021/10/13 03:36:52;;;;;;;;;;;;;;;;;;2074555;28;44399;-90
2021/10/13 03:37:54;;;;;;;;;;;;;;;;;;2082588;28;44036;-90
2021/10/13 03:38:56;;;;;;;;;;;;;;;;;;2082661;28;42482;-90
2021/10/13 03:39:57;;;;;;;;;;;;;;;;;;2082717;28;45577;-91
2021/10/13 03:40:59;;;;;;;;;;;;;;;;;;2083133;28;44095;-90
2021/10/13 03:42:01;;;;;;;;;;;;;;;;;;2082716;28;45966;-91
2021/10/13 03:43:03;;;;;;;;;;;;;;;;;;2082829;28;43174;-91
2021/10/13 03:44:05;;;;;;;;;;;;;;;;;;2082761;28;44036;-90
2021/10/13 03:45:07;;;;;;;;;;;;;;;;;;2082768;28;43140;-92
2021/10/13 03:46:15;;;;;;;;;;;;;;;;;;2082661;28;43868;-91
2021/10/13 03:47:16;;;;;;;;;;;;;;;;;;2082497;28;43304;-90
2021/10/13 03:48:18;;;;;;;;;;;;;;;;;;2082976;28;42871;-92
2021/10/13 03:49:19;;;;;;;;;;;;;;;;;;2083356;28;44439;-91
2021/10/13 03:50:21;;;;;;;;;;;;;;;;;;2083007;28;44366;-92
2021/10/13 03:51:23;;;;;;;;;;;;;;;;;;2082984;28;44933;-91
2021/10/13 03:52:24;;;;;;;;;;;;;;;;;;2082980;28;44546;-91
2021/10/13 03:53:26;;;;;;;;;;;;;;;;;;2082957;28;45415;-92
2021/10/13 03:54:27;;;;;;;;;;;;;;;;;;2082703;28;48309;-92
2021/10/13 03:55:29;;;;;;;;;;;;;;;;;;2082730;28;42961;-92
2021/10/13 03:56:31;;;;;;;;;;;;;;;;;;2082604;28;45588;-92
2021/10/13 03:57:32;;;;;;;;;;;;;;;;;;2082733;28;46597;-91
2021/10/13 03:58:34;;;;;;;;;;;;;;;;;;2074769;28;43968;-91
2021/10/13 03:59:36;;;;;;;;;;;;;;;;;;2082709;28;44343;-92
2021/10/13 04:00:38;;;;;;;;;;;;;;;;;;2082711;28;45921;-89
2021/10/13 04:01:39;;;;;;;;;;;;;;;;;;2082879;28;43995;-88
2021/10/13 04:02:41;;;;;;;;;;;;;;;;;;2082683;28;44015;-89
2021/10/13 04:03:43;;;;;;;;;;;;;;;;;;2082359;28;43643;-89
2021/10/13 04:04:44;;;;;;;;;;;;;;;;;;2082784;28;43617;-89
2021/10/13 04:05:47;;;;;;;;;;;;;;;;;;2081998;28;43668;-88
2021/10/13 04:06:49;;;;;;;;;;;;;;;;;;2082100;28;45405;-89
2021/10/13 04:07:50;;;;;;;;;;;;;;;;;;2082272;28;44089;-88
2021/10/13 04:08:52;;;;;;;;;;;;;;;;;;2082324;28;46639;-89
2021/10/13 04:09:54;;;;;;;;;;;;;;;;;;2082537;28;45295;-89
2021/10/13 04:10:55;;;;;;;;;;;;;;;;;;2082826;28;44056;-89
2021/10/13 04:11:57;;;;;;;;;;;;;;;;;;2082297;28;44460;-88
2021/10/13 04:12:58;;;;;;;;;;;;;;;;;;2083224;28;43477;-88
2021/10/13 04:13:59;;;;;;;;;;;;;;;;;;2082316;28;45545;-89
2021/10/13 04:15:05;;;;;;;;;;;;;;;;;;2082355;28;49118;-89
2021/10/13 04:16:07;;;;;;;;;;;;;;;;;;2082298;28;45920;-88
2021/10/13 04:17:08;;;;;;;;;;;;;;;;;;2082746;28;45796;-88
2021/10/13 04:18:10;;;;;;;;;;;;;;;;;;2082240;28;46315;-88
2021/10/13 04:19:11;;;;;;;;;;;;;;;;;;2082476;28;45593;-88
2021/10/13 04:20:13;;;;;;;;;;;;;;;;;;2082268;28;45869;-89
2021/10/13 04:21:14;;;;;;;;;;;;;;;;;;2082295;28;46018;-88
2021/10/13 04:22:16;;;;;;;;;;;;;;;;;;2074223;28;46030;-88
2021/10/13 04:23:17;;;;;;;;;;;;;;;;;;2082627;28;45105;-89
2021/10/13 04:24:19;;;;;;;;;;;;;;;;;;2082424;28;43180;-89
2021/10/13 04:25:21;;;;;;;;;;;;;;;;;;2082472;28;44558;-86
2021/10/13 04:26:22;;;;;;;;;;;;;;;;;;2082067;28;43742;-89
2021/10/13 04:27:23;;;;;;;;;;;;;;;;;;2082307;28;45439;-89
2021/10/13 04:28:25;;;;;;;;;;;;;;;;;;2082046;28;44355;-89
2021/10/13 04:29:27;;;;;;;;;;;;;;;;;;2082167;28;45406;-89
2021/10/13 04:30:28;;;;;;;;;;;;;;;;;;2082255;28;45988;-89
2021/10/13 04:31:30;;;;;;;;;;;;;;;;;;2082297;28;44478;-89
2021/10/13 04:32:31;;;;;;;;;;;;;;;;;;2082090;28;45692;-89
2021/10/13 04:33:33;;;;;;;;;;;;;;;;;;2074856;28;46291;-89
2021/10/13 04:34:34;;;;;;;;;;;;;;;;;;2081622;28;42266;-89
2021/10/13 04:35:35;;;;;;;;;;;;;;;;;;2082078;28;41624;-88
2021/10/13 04:36:37;;;;;;;;;;;;;;;;;;2081699;28;40970;-90
2021/10/13 04:37:38;;;;;;;;;;;;;;;;;;2082311;28;45111;-89
2021/10/13 04:38:40;;;;;;;;;;;;;;;;;;2082277;28;42999;-89
2021/10/13 04:39:42;;;;;;;;;;;;;;;;;;2082091;28;45492;-89
2021/10/13 04:40:43;;;;;;;;;;;;;;;;;;2082037;28;43122;-89
2021/10/13 04:41:45;;;;;;;;;;;;;;;;;;2082597;28;41985;-86
2021/10/13 04:42:46;;;;;;;;;;;;;;;;;;2082540;28;43580;-91
2021/10/13 04:43:47;;;;;;;;;;;;;;;;;;2082334;28;41524;-91
2021/10/13 04:44:49;;;;;;;;;;;;;;;;;;2074108;28;47053;-90
2021/10/13 04:45:50;;;;;;;;;;;;;;;;;;2082071;28;41490;-92
2021/10/13 04:46:52;;;;;;;;;;;;;;;;;;2082583;28;41956;-91
2021/10/13 04:47:54;;;;;;;;;;;;;;;;;;2082132;28;44795;-90
2021/10/13 04:48:56;;;;;;;;;;;;;;;;;;2082423;28;43407;-90
2021/10/13 04:49:57;;;;;;;;;;;;;;;;;;2082411;28;43904;-90
2021/10/13 04:50:59;;;;;;;;;;;;;;;;;;2082700;28;43012;-90
2021/10/13 04:52:00;;;;;;;;;;;;;;;;;;2082341;28;42960;-91
2021/10/13 04:53:02;;;;;;;;;;;;;;;;;;2082279;28;42983;-85
2021/10/13 04:54:03;;;;;;;;;;;;;;;;;;2081691;28;44159;-87
2021/10/13 04:55:05;;;;;;;;;;;;;;;;;;2082769;28;43172;-87
2021/10/13 04:56:06;;;;;;;;;;;;;;;;;;2073351;28;46404;-87
2021/10/13 04:57:08;;;;;;;;;;;;;;;;;;2082111;28;44128;-87
2021/10/13 04:58:10;;;;;;;;;;;;;;;;;;2073679;28;45271;-87
2021/10/13 04:59:11;;;;;;;;;;;;;;;;;;2074238;28;44081;-87
2021/10/13 05:00:13;;;;;;;;;;;;;;;;;;2082112;28;42949;-87
2021/10/13 05:01:15;;;;;;;;;;;;;;;;;;2073989;28;45657;-87
2021/10/13 05:02:16;;;;;;;;;;;;;;;;;;2066189;28;46503;-87
2021/10/13 05:03:19;;;;;;;;;;;;;;;;;;2082378;28;42554;-88
2021/10/13 05:04:20;;;;;;;;;;;;;;;;;;2082283;28;44257;-86
2021/10/13 05:05:24;;;;;;;;;;;;;;;;;;2082279;28;45426;-88
2021/10/13 05:06:25;;;;;;;;;;;;;;;;;;2082194;28;45422;-90
2021/10/13 05:07:27;;;;;;;;;;;;;;;;;;2083097;28;45513;-89
2021/10/13 05:08:28;;;;;;;;;;;;;;;;;;2082467;28;44468;-83
2021/10/13 05:09:30;;;;;;;;;;;;;;;;;;2082432;28;46636;-86
2021/10/13 05:10:32;;;;;;;;;;;;;;;;;;2082553;28;43688;-83
2021/10/13 05:11:33;;;;;;;;;;;;;;;;;;2083197;28;45983;-84
2021/10/13 05:12:35;;;;;;;;;;;;;;;;;;2083396;28;45622;-83
2021/10/13 05:13:36;;;;;;;;;;;;;;;;;;2082253;28;43988;-82
2021/10/13 05:14:38;;;;;;;;;;;;;;;;;;2082206;28;45347;-81
2021/10/13 05:15:41;;;;;;;;;;;;;;;;;;2073318;28;44541;-88
2021/10/13 05:16:42;;;;;;;;;;;;;;;;;;2074506;28;46458;-84
2021/10/13 05:17:46;;;;;;;;;;;;;;;;;;2082358;28;44573;-84
2021/10/13 05:18:47;;;;;;;;;;;;;;;;;;2082734;28;44259;-84
2021/10/13 05:19:50;;;;;;;;;;;;;;;;;;2081995;28;44743;-84
2021/10/13 05:20:51;;;;;;;;;;;;;;;;;;2081678;28;43853;-84
2021/10/13 05:21:53;;;;;;;;;;;;;;;;;;2082467;28;47270;-84
2021/10/13 05:22:54;;;;;;;;;;;;;;;;;;2082402;28;47652;-85
2021/10/13 05:23:56;;;;;;;;;;;;;;;;;;2082260;28;43320;-84
2021/10/13 05:24:57;;;;;;;;;;;;;;;;;;2083192;28;43255;-84
2021/10/13 05:25:58;;;;;;;;;;;;;;;;;;2082261;28;46907;-85
2021/10/13 05:27:00;;;;;;;;;;;;;;;;;;2082230;28;46030;-84
2021/10/13 05:28:02;;;;;;;;;;;;;;;;;;2083477;28;47371;-83
2021/10/13 05:29:03;;;;;;;;;;;;;;;;;;2081348;28;46034;-85
2021/10/13 05:30:05;;;;;;;;;;;;;;;;;;2083701;28;45772;-87
2021/10/13 05:31:06;;;;;;;;;;;;;;;;;;2082498;28;45489;-86
2021/10/13 05:32:08;;;;;;;;;;;;;;;;;;2081481;28;45143;-84
2021/10/13 05:33:10;;;;;;;;;;;;;;;;;;2086362;28;46484;-85
2021/10/13 05:34:12;;;;;;;;;;;;;;;;;;2087498;28;46041;-85
2021/10/13 05:35:13;;;;;;;;;;;;;;;;;;2087358;28;44699;-87
2021/10/13 05:36:15;;;;;;;;;;;;;;;;;;2084044;28;46248;-86
2021/10/13 05:37:28;;;;;;;;;;;;;;;;;;2082356;28;44536;-84
2021/10/13 05:38:31;;;;;;;;;;;;;;;;;;2082463;28;44811;-86
2021/10/13 05:39:33;;;;;;;;;;;;;;;;;;2082399;28;45915;-85
2021/10/13 05:40:34;;;;;;;;;;;;;;;;;;2081273;28;42421;-86
2021/10/13 05:41:36;;;;;;;;;;;;;;;;;;2081872;28;45700;-87
2021/10/13 05:42:37;;;;;;;;;;;;;;;;;;2081576;28;42891;-85
2021/10/13 05:43:39;;;;;;;;;;;;;;;;;;2082195;28;43468;-86
2021/10/13 05:44:41;;;;;;;;;;;;;;;;;;2082160;28;45463;-87
2021/10/13 05:45:42;;;;;;;;;;;;;;;;;;2081386;28;43970;-86
2021/10/13 05:46:43;;;;;;;;;;;;;;;;;;2082725;28;44457;-88
2021/10/13 05:47:45;;;;;;;;;;;;;;;;;;2083397;28;44168;-87
2021/10/13 05:48:46;;;;;;;;;;;;;;;;;;2083708;28;43220;-86
2021/10/13 05:49:48;;;;;;;;;;;;;;;;;;2082988;28;44202;-87
2021/10/13 05:50:49;;;;;;;;;;;;;;;;;;2083383;28;41212;-89
2021/10/13 05:51:51;;;;;;;;;;;;;;;;;;2083221;28;42595;-92
2021/10/13 05:52:52;;;;;;;;;;;;;;;;;;2083243;28;44350;-83
2021/10/13 05:54:14;;;;;;;;;;;;;;;;;;2084482;28;14580;-85
2021/10/13 05:55:15;;;;;;;;;;;;;;;;;;2083830;28;43861;-84
2021/10/13 05:56:18;;;;;;;;;;;;;;;;;;2082731;28;44413;-86
2021/10/13 05:57:19;;;;;;;;;;;;;;;;;;2082784;28;45094;-87
2021/10/13 05:58:23;;;;;;;;;;;;;;;;;;2083872;28;45769;-87
2021/10/13 05:59:24;;;;;;;;;;;;;;;;;;2083283;28;44434;-91
2021/10/13 06:00:27;;;;;;;;;;;;;;;;;;2083547;28;42674;-88
2021/10/13 06:01:29;;;;;;;;;;;;;;;;;;2083490;28;44035;-88
2021/10/13 06:02:33;;;;;;;;;;;;;;;;;;2082920;28;44926;-89
2021/10/13 06:03:37;;;;;;;;;;;;;;;;;;2084880;28;44244;-90
2021/10/13 06:04:38;;;;;;;;;;;;;;;;;;2084146;28;44455;-89
2021/10/13 06:05:40;;;;;;;;;;;;;;;;;;2083746;28;45119;-93
2021/10/13 06:06:42;;;;;;;;;;;;;;;;;;2083640;28;45469;-94
2021/10/13 06:07:43;;;;;;;;;;;;;;;;;;2083713;28;44401;-91
2021/10/13 06:08:45;;;;;;;;;;;;;;;;;;2076440;28;45314;-91
2021/10/13 06:09:47;;;;;;;;;;;;;;;;;;2083985;28;44903;-93
2021/10/13 06:10:48;;;;;;;;;;;;;;;;;;2083119;28;44476;-89
2021/10/13 06:11:50;;;;;;;;;;;;;;;;;;2083216;28;45692;-92
2021/10/13 06:12:51;;;;;;;;;;;;;;;;;;2083030;28;45539;-87
2021/10/13 06:13:53;;;;;;;;;;;;;;;;;;2082806;28;45031;-84
2021/10/13 06:14:54;;;;;;;;;;;;;;;;;;2074902;28;43790;-92
2021/10/13 06:15:57;;;;;;;;;;;;;;;;;;2084189;28;47408;-92
2021/10/13 06:16:59;;;;;;;;;;;;;;;;;;2084327;28;44254;-87
2021/10/13 06:18:09;;;;;;;;;;;;;;;;;;2083247;28;44311;-87
2021/10/13 06:19:11;;;;;;;;;;;;;;;;;;2083383;28;45386;-85
2021/10/13 06:20:13;;;;;;;;;;;;;;;;;;2083038;28;45406;-86
2021/10/13 06:21:14;;;;;;;;;;;;;;;;;;2083301;28;46576;-90
2021/10/13 06:22:15;;;;;;;;;;;;;;;;;;2083058;28;43764;-90
2021/10/13 06:23:19;;;;;;;;;;;;;;;;;;2083227;28;44903;-88
